sensor_id;sensor_type;location;lat;lon;timestamp;P1;durP1;ratioP1;P2;durP2;ratioP2
58621;SDS011;44389;51.578;5.456;2023-03-23T00:01:25;8.83;;;4.80;;
58621;SDS011;44389;51.578;5.456;2023-03-23T00:03:54;10.18;;;4.95;;
58621;SDS011;44389;51.578;5.456;2023-03-23T00:06:22;9.38;;;4.85;;
58621;SDS011;44389;51.578;5.456;2023-03-23T00:08:49;9.30;;;4.85;;
58621;SDS011;44389;51.578;5.456;2023-03-23T00:11:21;10.35;;;5.15;;
58621;SDS011;44389;51.578;5.456;2023-03-23T00:13:52;9.90;;;5.10;;
58621;SDS011;44389;51.578;5.456;2023-03-23T00:16:21;10.20;;;5.35;;
58621;SDS011;44389;51.578;5.456;2023-03-23T00:18:54;8.60;;;4.57;;
58621;SDS011;44389;51.578;5.456;2023-03-23T00:21:20;8.77;;;4.82;;
58621;SDS011;44389;51.578;5.456;2023-03-23T00:23:50;9.35;;;4.72;;
58621;SDS011;44389;51.578;5.456;2023-03-23T00:26:16;8.13;;;4.82;;
58621;SDS011;44389;51.578;5.456;2023-03-23T00:28:42;9.18;;;4.70;;
58621;SDS011;44389;51.578;5.456;2023-03-23T00:31:08;9.60;;;4.50;;
58621;SDS011;44389;51.578;5.456;2023-03-23T00:33:35;8.38;;;4.93;;
58621;SDS011;44389;51.578;5.456;2023-03-23T00:36:08;9.00;;;4.80;;
58621;SDS011;44389;51.578;5.456;2023-03-23T00:38:35;9.40;;;4.88;;
58621;SDS011;44389;51.578;5.456;2023-03-23T00:41:01;12.85;;;5.35;;
58621;SDS011;44389;51.578;5.456;2023-03-23T00:43:30;9.07;;;5.20;;
58621;SDS011;44389;51.578;5.456;2023-03-23T00:45:56;8.18;;;5.15;;
58621;SDS011;44389;51.578;5.456;2023-03-23T00:48:26;9.23;;;5.07;;
58621;SDS011;44389;51.578;5.456;2023-03-23T00:50:53;10.35;;;5.53;;
58621;SDS011;44389;51.578;5.456;2023-03-23T00:53:18;11.07;;;5.72;;
58621;SDS011;44389;51.578;5.456;2023-03-23T00:55:44;10.50;;;5.50;;
58621;SDS011;44389;51.578;5.456;2023-03-23T00:58:11;11.32;;;6.03;;
58621;SDS011;44389;51.578;5.456;2023-03-23T01:00:37;9.50;;;5.85;;
58621;SDS011;44389;51.578;5.456;2023-03-23T01:03:04;12.25;;;6.22;;
58621;SDS011;44389;51.578;5.456;2023-03-23T01:05:29;9.35;;;6.18;;
58621;SDS011;44389;51.578;5.456;2023-03-23T01:07:58;13.75;;;6.38;;
58621;SDS011;44389;51.578;5.456;2023-03-23T01:10:24;17.50;;;7.32;;
58621;SDS011;44389;51.578;5.456;2023-03-23T01:12:51;10.10;;;6.70;;
58621;SDS011;44389;51.578;5.456;2023-03-23T01:15:18;10.65;;;6.68;;
58621;SDS011;44389;51.578;5.456;2023-03-23T01:17:44;10.50;;;6.45;;
58621;SDS011;44389;51.578;5.456;2023-03-23T01:20:10;14.10;;;7.15;;
58621;SDS011;44389;51.578;5.456;2023-03-23T01:22:37;9.30;;;5.95;;
58621;SDS011;44389;51.578;5.456;2023-03-23T01:25:03;11.45;;;6.55;;
58621;SDS011;44389;51.578;5.456;2023-03-23T01:27:29;12.13;;;6.70;;
58621;SDS011;44389;51.578;5.456;2023-03-23T01:29:55;12.85;;;6.47;;
58621;SDS011;44389;51.578;5.456;2023-03-23T01:32:20;12.00;;;6.03;;
58621;SDS011;44389;51.578;5.456;2023-03-23T01:34:46;8.85;;;5.72;;
58621;SDS011;44389;51.578;5.456;2023-03-23T01:37:11;9.55;;;6.15;;
58621;SDS011;44389;51.578;5.456;2023-03-23T01:39:36;10.00;;;6.95;;
58621;SDS011;44389;51.578;5.456;2023-03-23T01:42:02;10.07;;;6.13;;
58621;SDS011;44389;51.578;5.456;2023-03-23T01:46:56;12.18;;;6.63;;
58621;SDS011;44389;51.578;5.456;2023-03-23T01:49:24;10.02;;;5.90;;
58621;SDS011;44389;51.578;5.456;2023-03-23T01:51:53;9.77;;;6.30;;
58621;SDS011;44389;51.578;5.456;2023-03-23T01:54:21;11.48;;;6.10;;
58621;SDS011;44389;51.578;5.456;2023-03-23T01:56:52;7.38;;;5.80;;
58621;SDS011;44389;51.578;5.456;2023-03-23T01:59:20;10.32;;;6.20;;
58621;SDS011;44389;51.578;5.456;2023-03-23T02:01:47;10.95;;;6.28;;
58621;SDS011;44389;51.578;5.456;2023-03-23T02:04:13;9.52;;;6.18;;
58621;SDS011;44389;51.578;5.456;2023-03-23T02:06:41;8.60;;;5.70;;
58621;SDS011;44389;51.578;5.456;2023-03-23T02:09:07;11.15;;;6.28;;
58621;SDS011;44389;51.578;5.456;2023-03-23T02:11:33;8.75;;;5.88;;
58621;SDS011;44389;51.578;5.456;2023-03-23T02:13:59;8.23;;;5.75;;
58621;SDS011;44389;51.578;5.456;2023-03-23T02:16:29;10.13;;;5.88;;
58621;SDS011;44389;51.578;5.456;2023-03-23T02:27:28;12.27;;;6.18;;
58621;SDS011;44389;51.578;5.456;2023-03-23T02:30:43;11.70;;;6.25;;
58621;SDS011;44389;51.578;5.456;2023-03-23T02:33:33;9.43;;;5.75;;
58621;SDS011;44389;51.578;5.456;2023-03-23T02:36:05;10.70;;;5.60;;
58621;SDS011;44389;51.578;5.456;2023-03-23T02:38:43;8.77;;;5.53;;
58621;SDS011;44389;51.578;5.456;2023-03-23T02:43:44;9.25;;;6.10;;
58621;SDS011;44389;51.578;5.456;2023-03-23T02:46:11;10.68;;;5.22;;
58621;SDS011;44389;51.578;5.456;2023-03-23T02:48:38;9.32;;;5.65;;
58621;SDS011;44389;51.578;5.456;2023-03-23T02:51:06;8.05;;;5.50;;
58621;SDS011;44389;51.578;5.456;2023-03-23T02:53:36;8.80;;;5.85;;
58621;SDS011;44389;51.578;5.456;2023-03-23T02:56:04;9.02;;;5.38;;
58621;SDS011;44389;51.578;5.456;2023-03-23T02:58:32;10.50;;;5.80;;
58621;SDS011;44389;51.578;5.456;2023-03-23T03:00:58;8.60;;;5.57;;
58621;SDS011;44389;51.578;5.456;2023-03-23T03:03:25;9.55;;;5.60;;
58621;SDS011;44389;51.578;5.456;2023-03-23T03:05:57;10.45;;;5.68;;
58621;SDS011;44389;51.578;5.456;2023-03-23T03:08:39;8.48;;;5.40;;
58621;SDS011;44389;51.578;5.456;2023-03-23T03:11:11;6.95;;;5.00;;
58621;SDS011;44389;51.578;5.456;2023-03-23T03:13:43;8.55;;;5.32;;
58621;SDS011;44389;51.578;5.456;2023-03-23T03:18:59;8.48;;;5.25;;
58621;SDS011;44389;51.578;5.456;2023-03-23T03:21:27;8.35;;;5.40;;
58621;SDS011;44389;51.578;5.456;2023-03-23T03:23:55;8.07;;;5.15;;
58621;SDS011;44389;51.578;5.456;2023-03-23T03:26:25;9.98;;;5.80;;
58621;SDS011;44389;51.578;5.456;2023-03-23T03:28:52;8.88;;;5.22;;
58621;SDS011;44389;51.578;5.456;2023-03-23T03:31:19;9.27;;;5.75;;
58621;SDS011;44389;51.578;5.456;2023-03-23T03:33:48;10.07;;;5.18;;
58621;SDS011;44389;51.578;5.456;2023-03-23T03:36:17;7.90;;;5.47;;
58621;SDS011;44389;51.578;5.456;2023-03-23T03:38:46;9.27;;;5.22;;
58621;SDS011;44389;51.578;5.456;2023-03-23T03:41:14;7.25;;;5.15;;
58621;SDS011;44389;51.578;5.456;2023-03-23T03:43:39;8.98;;;5.25;;
58621;SDS011;44389;51.578;5.456;2023-03-23T03:46:05;8.18;;;5.00;;
58621;SDS011;44389;51.578;5.456;2023-03-23T03:48:30;10.05;;;5.25;;
58621;SDS011;44389;51.578;5.456;2023-03-23T03:50:56;7.80;;;5.05;;
58621;SDS011;44389;51.578;5.456;2023-03-23T03:53:22;10.40;;;5.03;;
58621;SDS011;44389;51.578;5.456;2023-03-23T03:55:50;10.73;;;4.63;;
58621;SDS011;44389;51.578;5.456;2023-03-23T03:58:16;10.32;;;4.93;;
58621;SDS011;44389;51.578;5.456;2023-03-23T04:00:42;8.75;;;4.40;;
58621;SDS011;44389;51.578;5.456;2023-03-23T04:03:08;11.07;;;4.43;;
58621;SDS011;44389;51.578;5.456;2023-03-23T04:05:34;8.50;;;4.15;;
58621;SDS011;44389;51.578;5.456;2023-03-23T04:08:01;8.38;;;4.25;;
58621;SDS011;44389;51.578;5.456;2023-03-23T04:10:27;10.38;;;4.15;;
58621;SDS011;44389;51.578;5.456;2023-03-23T04:12:54;8.88;;;3.88;;
58621;SDS011;44389;51.578;5.456;2023-03-23T04:15:20;12.40;;;4.05;;
58621;SDS011;44389;51.578;5.456;2023-03-23T04:17:46;9.50;;;4.20;;
58621;SDS011;44389;51.578;5.456;2023-03-23T04:20:12;9.60;;;3.72;;
58621;SDS011;44389;51.578;5.456;2023-03-23T04:22:43;11.48;;;3.70;;
58621;SDS011;44389;51.578;5.456;2023-03-23T04:25:10;10.10;;;3.60;;
58621;SDS011;44389;51.578;5.456;2023-03-23T04:30:03;9.93;;;3.47;;
58621;SDS011;44389;51.578;5.456;2023-03-23T04:32:30;10.65;;;3.60;;
58621;SDS011;44389;51.578;5.456;2023-03-23T04:34:56;16.30;;;3.90;;
58621;SDS011;44389;51.578;5.456;2023-03-23T04:37:23;11.13;;;3.63;;
58621;SDS011;44389;51.578;5.456;2023-03-23T04:39:54;12.10;;;3.97;;
58621;SDS011;44389;51.578;5.456;2023-03-23T04:42:25;10.70;;;3.67;;
58621;SDS011;44389;51.578;5.456;2023-03-23T04:44:52;13.38;;;3.30;;
58621;SDS011;44389;51.578;5.456;2023-03-23T04:47:20;11.70;;;3.67;;
58621;SDS011;44389;51.578;5.456;2023-03-23T04:49:46;11.30;;;3.30;;
58621;SDS011;44389;51.578;5.456;2023-03-23T04:52:11;13.13;;;3.65;;
58621;SDS011;44389;51.578;5.456;2023-03-23T04:54:36;9.95;;;2.67;;
58621;SDS011;44389;51.578;5.456;2023-03-23T04:57:02;13.68;;;3.65;;
58621;SDS011;44389;51.578;5.456;2023-03-23T04:59:28;12.82;;;2.95;;
58621;SDS011;44389;51.578;5.456;2023-03-23T05:01:55;11.93;;;2.65;;
58621;SDS011;44389;51.578;5.456;2023-03-23T05:04:21;11.98;;;2.90;;
58621;SDS011;44389;51.578;5.456;2023-03-23T05:06:47;11.13;;;2.63;;
58621;SDS011;44389;51.578;5.456;2023-03-23T05:09:13;10.80;;;3.10;;
58621;SDS011;44389;51.578;5.456;2023-03-23T05:11:38;14.20;;;2.97;;
58621;SDS011;44389;51.578;5.456;2023-03-23T05:14:04;11.50;;;3.45;;
58621;SDS011;44389;51.578;5.456;2023-03-23T05:16:30;8.23;;;2.58;;
58621;SDS011;44389;51.578;5.456;2023-03-23T05:18:55;10.50;;;3.15;;
58621;SDS011;44389;51.578;5.456;2023-03-23T05:21:22;12.77;;;3.00;;
58621;SDS011;44389;51.578;5.456;2023-03-23T05:23:48;11.40;;;2.90;;
58621;SDS011;44389;51.578;5.456;2023-03-23T05:26:22;14.25;;;3.30;;
58621;SDS011;44389;51.578;5.456;2023-03-23T05:28:53;11.80;;;3.33;;
58621;SDS011;44389;51.578;5.456;2023-03-23T05:31:20;13.35;;;2.83;;
58621;SDS011;44389;51.578;5.456;2023-03-23T05:33:46;10.55;;;2.47;;
58621;SDS011;44389;51.578;5.456;2023-03-23T05:36:12;10.93;;;2.70;;
58621;SDS011;44389;51.578;5.456;2023-03-23T05:38:38;11.55;;;3.10;;
58621;SDS011;44389;51.578;5.456;2023-03-23T05:41:07;8.73;;;2.50;;
58621;SDS011;44389;51.578;5.456;2023-03-23T05:43:33;9.80;;;2.95;;
58621;SDS011;44389;51.578;5.456;2023-03-23T05:45:58;12.10;;;3.05;;
58621;SDS011;44389;51.578;5.456;2023-03-23T05:48:23;10.48;;;2.85;;
58621;SDS011;44389;51.578;5.456;2023-03-23T05:50:49;14.95;;;3.40;;
58621;SDS011;44389;51.578;5.456;2023-03-23T05:53:14;9.07;;;3.25;;
58621;SDS011;44389;51.578;5.456;2023-03-23T05:55:40;11.18;;;3.10;;
58621;SDS011;44389;51.578;5.456;2023-03-23T05:58:06;10.75;;;3.03;;
58621;SDS011;44389;51.578;5.456;2023-03-23T06:00:31;13.63;;;3.03;;
58621;SDS011;44389;51.578;5.456;2023-03-23T06:02:57;11.20;;;2.80;;
58621;SDS011;44389;51.578;5.456;2023-03-23T06:05:23;14.07;;;3.10;;
58621;SDS011;44389;51.578;5.456;2023-03-23T06:07:50;10.45;;;3.42;;
58621;SDS011;44389;51.578;5.456;2023-03-23T06:10:17;15.10;;;3.40;;
58621;SDS011;44389;51.578;5.456;2023-03-23T06:12:42;12.35;;;3.25;;
58621;SDS011;44389;51.578;5.456;2023-03-23T06:15:09;14.88;;;3.15;;
58621;SDS011;44389;51.578;5.456;2023-03-23T06:17:35;14.25;;;3.35;;
58621;SDS011;44389;51.578;5.456;2023-03-23T06:20:01;14.70;;;3.28;;
58621;SDS011;44389;51.578;5.456;2023-03-23T06:22:29;11.18;;;3.45;;
58621;SDS011;44389;51.578;5.456;2023-03-23T06:24:54;15.15;;;3.97;;
58621;SDS011;44389;51.578;5.456;2023-03-23T06:27:22;13.07;;;3.33;;
58621;SDS011;44389;51.578;5.456;2023-03-23T06:29:48;10.93;;;3.55;;
58621;SDS011;44389;51.578;5.456;2023-03-23T06:32:13;14.23;;;2.97;;
58621;SDS011;44389;51.578;5.456;2023-03-23T06:34:40;17.15;;;3.17;;
58621;SDS011;44389;51.578;5.456;2023-03-23T06:37:08;15.68;;;3.17;;
58621;SDS011;44389;51.578;5.456;2023-03-23T06:39:34;14.98;;;3.33;;
58621;SDS011;44389;51.578;5.456;2023-03-23T06:42:01;13.15;;;3.70;;
58621;SDS011;44389;51.578;5.456;2023-03-23T06:44:27;16.25;;;4.00;;
58621;SDS011;44389;51.578;5.456;2023-03-23T06:46:52;16.95;;;3.85;;
58621;SDS011;44389;51.578;5.456;2023-03-23T06:49:17;15.98;;;3.63;;
58621;SDS011;44389;51.578;5.456;2023-03-23T06:51:43;19.63;;;3.97;;
58621;SDS011;44389;51.578;5.456;2023-03-23T06:54:08;13.98;;;3.83;;
58621;SDS011;44389;51.578;5.456;2023-03-23T06:56:33;14.65;;;3.60;;
58621;SDS011;44389;51.578;5.456;2023-03-23T06:58:59;17.20;;;4.07;;
58621;SDS011;44389;51.578;5.456;2023-03-23T07:01:24;13.73;;;3.38;;
58621;SDS011;44389;51.578;5.456;2023-03-23T07:03:50;9.88;;;2.88;;
58621;SDS011;44389;51.578;5.456;2023-03-23T07:06:15;15.80;;;3.85;;
58621;SDS011;44389;51.578;5.456;2023-03-23T07:08:41;18.52;;;3.83;;
58621;SDS011;44389;51.578;5.456;2023-03-23T07:11:06;17.40;;;5.82;;
58621;SDS011;44389;51.578;5.456;2023-03-23T07:13:32;16.58;;;4.43;;
58621;SDS011;44389;51.578;5.456;2023-03-23T07:15:58;17.05;;;4.47;;
58621;SDS011;44389;51.578;5.456;2023-03-23T07:18:24;11.70;;;4.15;;
58621;SDS011;44389;51.578;5.456;2023-03-23T07:20:50;14.57;;;3.63;;
58621;SDS011;44389;51.578;5.456;2023-03-23T07:23:17;13.57;;;3.08;;
58621;SDS011;44389;51.578;5.456;2023-03-23T07:25:43;13.05;;;3.20;;
58621;SDS011;44389;51.578;5.456;2023-03-23T07:28:09;17.13;;;3.92;;
58621;SDS011;44389;51.578;5.456;2023-03-23T07:30:35;9.68;;;3.70;;
58621;SDS011;44389;51.578;5.456;2023-03-23T07:33:03;14.40;;;3.67;;
58621;SDS011;44389;51.578;5.456;2023-03-23T07:35:30;9.60;;;2.97;;
58621;SDS011;44389;51.578;5.456;2023-03-23T07:37:55;11.25;;;2.83;;
58621;SDS011;44389;51.578;5.456;2023-03-23T07:40:20;8.75;;;2.40;;
58621;SDS011;44389;51.578;5.456;2023-03-23T07:42:46;7.93;;;2.20;;
58621;SDS011;44389;51.578;5.456;2023-03-23T07:45:17;6.65;;;1.67;;
58621;SDS011;44389;51.578;5.456;2023-03-23T07:47:42;6.05;;;2.05;;
58621;SDS011;44389;51.578;5.456;2023-03-23T07:50:08;4.13;;;1.20;;
58621;SDS011;44389;51.578;5.456;2023-03-23T07:52:34;3.72;;;1.60;;
58621;SDS011;44389;51.578;5.456;2023-03-23T07:55:00;3.65;;;1.60;;
58621;SDS011;44389;51.578;5.456;2023-03-23T07:57:29;6.45;;;1.48;;
58621;SDS011;44389;51.578;5.456;2023-03-23T07:59:55;4.23;;;1.40;;
58621;SDS011;44389;51.578;5.456;2023-03-23T08:02:22;6.65;;;1.73;;
58621;SDS011;44389;51.578;5.456;2023-03-23T08:04:49;3.92;;;1.50;;
58621;SDS011;44389;51.578;5.456;2023-03-23T08:07:16;7.78;;;2.03;;
58621;SDS011;44389;51.578;5.456;2023-03-23T08:09:42;3.55;;;1.55;;
58621;SDS011;44389;51.578;5.456;2023-03-23T08:12:08;6.60;;;1.90;;
58621;SDS011;44389;51.578;5.456;2023-03-23T08:14:34;6.20;;;2.03;;
58621;SDS011;44389;51.578;5.456;2023-03-23T08:16:59;11.07;;;4.13;;
58621;SDS011;44389;51.578;5.456;2023-03-23T08:19:25;8.48;;;2.33;;
58621;SDS011;44389;51.578;5.456;2023-03-23T08:21:51;6.43;;;2.15;;
58621;SDS011;44389;51.578;5.456;2023-03-23T08:24:16;9.15;;;2.55;;
58621;SDS011;44389;51.578;5.456;2023-03-23T08:26:42;11.88;;;3.13;;
58621;SDS011;44389;51.578;5.456;2023-03-23T08:29:07;7.97;;;2.45;;
58621;SDS011;44389;51.578;5.456;2023-03-23T08:31:33;8.43;;;2.10;;
58621;SDS011;44389;51.578;5.456;2023-03-23T08:34:03;6.18;;;1.95;;
58621;SDS011;44389;51.578;5.456;2023-03-23T08:36:33;8.25;;;2.47;;
58621;SDS011;44389;51.578;5.456;2023-03-23T08:38:59;8.18;;;2.00;;
58621;SDS011;44389;51.578;5.456;2023-03-23T08:41:24;5.45;;;1.85;;
58621;SDS011;44389;51.578;5.456;2023-03-23T08:43:50;9.48;;;2.10;;
58621;SDS011;44389;51.578;5.456;2023-03-23T08:46:17;9.52;;;2.35;;
58621;SDS011;44389;51.578;5.456;2023-03-23T08:48:44;7.13;;;1.67;;
58621;SDS011;44389;51.578;5.456;2023-03-23T08:51:10;7.90;;;2.17;;
58621;SDS011;44389;51.578;5.456;2023-03-23T08:53:35;12.25;;;2.20;;
58621;SDS011;44389;51.578;5.456;2023-03-23T08:56:05;10.80;;;2.10;;
58621;SDS011;44389;51.578;5.456;2023-03-23T08:58:32;7.70;;;2.15;;
58621;SDS011;44389;51.578;5.456;2023-03-23T09:00:59;6.60;;;2.10;;
58621;SDS011;44389;51.578;5.456;2023-03-23T09:03:25;5.80;;;1.70;;
58621;SDS011;44389;51.578;5.456;2023-03-23T09:05:50;8.15;;;2.25;;
58621;SDS011;44389;51.578;5.456;2023-03-23T09:08:15;7.28;;;1.92;;
58621;SDS011;44389;51.578;5.456;2023-03-23T09:10:40;5.70;;;1.70;;
58621;SDS011;44389;51.578;5.456;2023-03-23T09:13:06;9.48;;;2.10;;
58621;SDS011;44389;51.578;5.456;2023-03-23T09:15:31;8.55;;;2.25;;
58621;SDS011;44389;51.578;5.456;2023-03-23T09:17:57;6.00;;;2.33;;
58621;SDS011;44389;51.578;5.456;2023-03-23T09:20:24;6.65;;;2.17;;
58621;SDS011;44389;51.578;5.456;2023-03-23T09:22:52;10.13;;;2.47;;
58621;SDS011;44389;51.578;5.456;2023-03-23T09:25:19;9.80;;;2.40;;
58621;SDS011;44389;51.578;5.456;2023-03-23T09:27:50;10.50;;;2.67;;
58621;SDS011;44389;51.578;5.456;2023-03-23T09:30:21;9.10;;;2.25;;
58621;SDS011;44389;51.578;5.456;2023-03-23T09:32:55;8.43;;;2.97;;
58621;SDS011;44389;51.578;5.456;2023-03-23T09:35:22;9.95;;;2.60;;
58621;SDS011;44389;51.578;5.456;2023-03-23T09:37:48;8.75;;;2.40;;
58621;SDS011;44389;51.578;5.456;2023-03-23T09:40:24;10.13;;;2.95;;
58621;SDS011;44389;51.578;5.456;2023-03-23T09:43:28;7.65;;;2.60;;
58621;SDS011;44389;51.578;5.456;2023-03-23T09:46:24;9.82;;;2.63;;
58621;SDS011;44389;51.578;5.456;2023-03-23T09:48:59;11.15;;;2.65;;
58621;SDS011;44389;51.578;5.456;2023-03-23T09:54:19;6.32;;;2.50;;
58621;SDS011;44389;51.578;5.456;2023-03-23T09:56:47;7.85;;;2.20;;
58621;SDS011;44389;51.578;5.456;2023-03-23T10:02:14;9.30;;;2.30;;
58621;SDS011;44389;51.578;5.456;2023-03-23T10:04:49;8.27;;;2.30;;
58621;SDS011;44389;51.578;5.456;2023-03-23T10:07:18;7.75;;;2.20;;
58621;SDS011;44389;51.578;5.456;2023-03-23T10:09:48;9.75;;;2.55;;
58621;SDS011;44389;51.578;5.456;2023-03-23T10:15:17;8.05;;;2.20;;
58621;SDS011;44389;51.578;5.456;2023-03-23T10:17:50;8.40;;;2.38;;
58621;SDS011;44389;51.578;5.456;2023-03-23T10:20:35;9.35;;;2.13;;
58621;SDS011;44389;51.578;5.456;2023-03-23T10:23:20;7.38;;;2.20;;
58621;SDS011;44389;51.578;5.456;2023-03-23T10:26:21;8.77;;;2.60;;
58621;SDS011;44389;51.578;5.456;2023-03-23T10:28:51;8.27;;;2.13;;
58621;SDS011;44389;51.578;5.456;2023-03-23T10:31:39;8.88;;;2.15;;
58621;SDS011;44389;51.578;5.456;2023-03-23T10:34:12;8.80;;;2.15;;
58621;SDS011;44389;51.578;5.456;2023-03-23T10:36:57;8.75;;;2.38;;
58621;SDS011;44389;51.578;5.456;2023-03-23T10:39:45;9.10;;;2.85;;
58621;SDS011;44389;51.578;5.456;2023-03-23T10:44:52;8.98;;;2.70;;
58621;SDS011;44389;51.578;5.456;2023-03-23T10:47:19;9.80;;;3.00;;
58621;SDS011;44389;51.578;5.456;2023-03-23T10:49:48;9.90;;;2.67;;
58621;SDS011;44389;51.578;5.456;2023-03-23T10:58:08;8.88;;;2.80;;
58621;SDS011;44389;51.578;5.456;2023-03-23T11:00:42;9.25;;;2.78;;
58621;SDS011;44389;51.578;5.456;2023-03-23T11:05:43;9.57;;;2.58;;
58621;SDS011;44389;51.578;5.456;2023-03-23T11:08:14;7.03;;;2.30;;
58621;SDS011;44389;51.578;5.456;2023-03-23T11:10:56;9.15;;;2.85;;
58621;SDS011;44389;51.578;5.456;2023-03-23T11:13:27;8.05;;;2.28;;
58621;SDS011;44389;51.578;5.456;2023-03-23T11:15:55;8.40;;;2.25;;
58621;SDS011;44389;51.578;5.456;2023-03-23T11:18:22;9.75;;;2.45;;
58621;SDS011;44389;51.578;5.456;2023-03-23T11:20:52;7.68;;;2.47;;
58621;SDS011;44389;51.578;5.456;2023-03-23T11:23:22;10.82;;;2.55;;
58621;SDS011;44389;51.578;5.456;2023-03-23T11:26:13;10.70;;;2.72;;
58621;SDS011;44389;51.578;5.456;2023-03-23T11:28:54;15.10;;;2.90;;
58621;SDS011;44389;51.578;5.456;2023-03-23T11:31:43;8.77;;;2.03;;
58621;SDS011;44389;51.578;5.456;2023-03-23T11:34:24;8.18;;;2.45;;
58621;SDS011;44389;51.578;5.456;2023-03-23T11:36:57;10.10;;;2.70;;
58621;SDS011;44389;51.578;5.456;2023-03-23T11:39:32;9.48;;;2.10;;
58621;SDS011;44389;51.578;5.456;2023-03-23T11:42:00;11.02;;;2.72;;
58621;SDS011;44389;51.578;5.456;2023-03-23T11:44:40;8.35;;;2.00;;
58621;SDS011;44389;51.578;5.456;2023-03-23T11:49:47;8.95;;;2.13;;
58621;SDS011;44389;51.578;5.456;2023-03-23T11:52:25;8.70;;;2.03;;
58621;SDS011;44389;51.578;5.456;2023-03-23T11:55:08;8.02;;;1.90;;
58621;SDS011;44389;51.578;5.456;2023-03-23T11:57:39;7.20;;;1.90;;
58621;SDS011;44389;51.578;5.456;2023-03-23T12:00:22;8.13;;;2.25;;
58621;SDS011;44389;51.578;5.456;2023-03-23T12:05:55;5.15;;;1.95;;
58621;SDS011;44389;51.578;5.456;2023-03-23T12:11:05;10.95;;;2.42;;
58621;SDS011;44389;51.578;5.456;2023-03-23T12:16:40;7.45;;;2.30;;
58621;SDS011;44389;51.578;5.456;2023-03-23T12:30:31;10.07;;;2.88;;
58621;SDS011;44389;51.578;5.456;2023-03-23T12:33:22;10.90;;;2.78;;
58621;SDS011;44389;51.578;5.456;2023-03-23T12:36:35;7.57;;;2.25;;
58621;SDS011;44389;51.578;5.456;2023-03-23T12:44:37;10.00;;;2.55;;
58621;SDS011;44389;51.578;5.456;2023-03-23T12:52:59;10.35;;;2.78;;
58621;SDS011;44389;51.578;5.456;2023-03-23T12:55:35;8.65;;;2.42;;
58621;SDS011;44389;51.578;5.456;2023-03-23T12:58:13;9.30;;;2.65;;
58621;SDS011;44389;51.578;5.456;2023-03-23T13:00:56;8.00;;;2.60;;
58621;SDS011;44389;51.578;5.456;2023-03-23T13:03:28;8.63;;;2.50;;
58621;SDS011;44389;51.578;5.456;2023-03-23T13:06:12;9.30;;;2.15;;
58621;SDS011;44389;51.578;5.456;2023-03-23T13:08:41;11.30;;;3.10;;
58621;SDS011;44389;51.578;5.456;2023-03-23T13:11:16;10.38;;;3.00;;
58621;SDS011;44389;51.578;5.456;2023-03-23T13:13:50;11.55;;;2.90;;
58621;SDS011;44389;51.578;5.456;2023-03-23T13:19:04;8.73;;;2.78;;
58621;SDS011;44389;51.578;5.456;2023-03-23T13:21:44;8.90;;;2.47;;
58621;SDS011;44389;51.578;5.456;2023-03-23T13:24:18;9.07;;;3.00;;
58621;SDS011;44389;51.578;5.456;2023-03-23T13:26:46;10.25;;;2.53;;
58621;SDS011;44389;51.578;5.456;2023-03-23T13:29:17;10.23;;;2.85;;
58621;SDS011;44389;51.578;5.456;2023-03-23T13:31:44;10.00;;;2.60;;
58621;SDS011;44389;51.578;5.456;2023-03-23T13:36:56;8.57;;;2.65;;
58621;SDS011;44389;51.578;5.456;2023-03-23T13:42:01;10.68;;;3.05;;
58621;SDS011;44389;51.578;5.456;2023-03-23T13:50:03;12.63;;;2.80;;
58621;SDS011;44389;51.578;5.456;2023-03-23T13:52:46;13.25;;;3.65;;
58621;SDS011;44389;51.578;5.456;2023-03-23T14:05:50;9.70;;;2.90;;
58621;SDS011;44389;51.578;5.456;2023-03-23T14:10:55;13.40;;;3.33;;
58621;SDS011;44389;51.578;5.456;2023-03-23T14:13:29;9.75;;;2.88;;
58621;SDS011;44389;51.578;5.456;2023-03-23T14:15:59;8.18;;;2.83;;
58621;SDS011;44389;51.578;5.456;2023-03-23T14:18:30;7.20;;;2.63;;
58621;SDS011;44389;51.578;5.456;2023-03-23T14:21:03;8.55;;;2.75;;
58621;SDS011;44389;51.578;5.456;2023-03-23T14:23:31;9.15;;;3.20;;
58621;SDS011;44389;51.578;5.456;2023-03-23T14:26:02;10.57;;;3.00;;
58621;SDS011;44389;51.578;5.456;2023-03-23T14:28:37;9.35;;;2.80;;
58621;SDS011;44389;51.578;5.456;2023-03-23T14:31:04;9.90;;;2.80;;
58621;SDS011;44389;51.578;5.456;2023-03-23T14:33:37;10.68;;;3.95;;
58621;SDS011;44389;51.578;5.456;2023-03-23T14:36:03;11.98;;;5.00;;
58621;SDS011;44389;51.578;5.456;2023-03-23T14:38:29;11.55;;;4.10;;
58621;SDS011;44389;51.578;5.456;2023-03-23T14:41:00;11.65;;;3.15;;
58621;SDS011;44389;51.578;5.456;2023-03-23T14:43:27;13.20;;;3.83;;
58621;SDS011;44389;51.578;5.456;2023-03-23T14:45:54;10.27;;;3.17;;
58621;SDS011;44389;51.578;5.456;2023-03-23T14:48:21;9.02;;;3.33;;
58621;SDS011;44389;51.578;5.456;2023-03-23T14:50:56;13.63;;;3.75;;
58621;SDS011;44389;51.578;5.456;2023-03-23T14:56:12;11.60;;;3.40;;
58621;SDS011;44389;51.578;5.456;2023-03-23T14:58:43;11.07;;;3.50;;
58621;SDS011;44389;51.578;5.456;2023-03-23T15:01:18;15.13;;;3.92;;
58621;SDS011;44389;51.578;5.456;2023-03-23T15:03:53;14.50;;;4.28;;
58621;SDS011;44389;51.578;5.456;2023-03-23T15:06:20;15.82;;;4.32;;
58621;SDS011;44389;51.578;5.456;2023-03-23T15:13:46;9.80;;;2.90;;
58621;SDS011;44389;51.578;5.456;2023-03-23T15:16:19;8.65;;;2.70;;
58621;SDS011;44389;51.578;5.456;2023-03-23T15:18:49;10.05;;;2.70;;
58621;SDS011;44389;51.578;5.456;2023-03-23T15:21:27;12.98;;;2.92;;
58621;SDS011;44389;51.578;5.456;2023-03-23T15:23:52;10.75;;;4.03;;
58621;SDS011;44389;51.578;5.456;2023-03-23T15:29:00;11.27;;;3.35;;
58621;SDS011;44389;51.578;5.456;2023-03-23T15:31:39;21.27;;;10.43;;
58621;SDS011;44389;51.578;5.456;2023-03-23T15:34:06;14.73;;;6.38;;
58621;SDS011;44389;51.578;5.456;2023-03-23T15:36:39;21.60;;;11.98;;
58621;SDS011;44389;51.578;5.456;2023-03-23T15:39:05;11.88;;;4.40;;
58621;SDS011;44389;51.578;5.456;2023-03-23T15:41:31;13.50;;;3.80;;
58621;SDS011;44389;51.578;5.456;2023-03-23T15:43:58;12.93;;;3.60;;
58621;SDS011;44389;51.578;5.456;2023-03-23T15:46:34;10.63;;;3.70;;
58621;SDS011;44389;51.578;5.456;2023-03-23T15:51:29;12.77;;;3.83;;
58621;SDS011;44389;51.578;5.456;2023-03-23T15:53:56;12.55;;;3.67;;
58621;SDS011;44389;51.578;5.456;2023-03-23T15:56:22;9.82;;;2.67;;
58621;SDS011;44389;51.578;5.456;2023-03-23T15:58:49;12.38;;;3.53;;
58621;SDS011;44389;51.578;5.456;2023-03-23T16:01:25;13.30;;;3.22;;
58621;SDS011;44389;51.578;5.456;2023-03-23T16:04:04;16.20;;;5.95;;
58621;SDS011;44389;51.578;5.456;2023-03-23T16:06:32;12.35;;;3.70;;
58621;SDS011;44389;51.578;5.456;2023-03-23T16:08:59;12.00;;;2.90;;
58621;SDS011;44389;51.578;5.456;2023-03-23T16:11:27;21.83;;;9.88;;
58621;SDS011;44389;51.578;5.456;2023-03-23T16:13:55;11.00;;;4.65;;
58621;SDS011;44389;51.578;5.456;2023-03-23T16:16:27;12.63;;;3.78;;
58621;SDS011;44389;51.578;5.456;2023-03-23T16:18:55;12.63;;;3.10;;
58621;SDS011;44389;51.578;5.456;2023-03-23T16:21:20;10.10;;;3.47;;
58621;SDS011;44389;51.578;5.456;2023-03-23T16:23:46;10.05;;;3.03;;
58621;SDS011;44389;51.578;5.456;2023-03-23T16:26:12;10.70;;;3.55;;
58621;SDS011;44389;51.578;5.456;2023-03-23T16:28:38;15.95;;;6.60;;
58621;SDS011;44389;51.578;5.456;2023-03-23T16:31:05;14.38;;;4.93;;
58621;SDS011;44389;51.578;5.456;2023-03-23T16:33:30;9.27;;;2.90;;
58621;SDS011;44389;51.578;5.456;2023-03-23T16:35:55;12.13;;;3.38;;
58621;SDS011;44389;51.578;5.456;2023-03-23T16:38:22;13.13;;;3.45;;
58621;SDS011;44389;51.578;5.456;2023-03-23T16:40:48;14.52;;;4.35;;
58621;SDS011;44389;51.578;5.456;2023-03-23T16:43:13;9.93;;;3.40;;
58621;SDS011;44389;51.578;5.456;2023-03-23T16:45:40;11.23;;;3.95;;